Time,TemperatureF,DewpointF,PressureIn,WindDirection,WindDirectionDegrees,WindSpeedMPH,WindSpeedGustMPH,Humidity,HourlyPrecipIn,Conditions,Clouds,dailyrainin,SolarRadiationWatts/m^2,SoftwareType,DateUTC
2013-03-30 00:02:00,49.0,5.0,-100.00,West,270,5.0,9.0,16,0.00,,,0.00,0.000000,,2013-03-30 07:02:00,
2013-03-30 00:12:00,49.0,5.0,-100.00,West,270,5.0,9.0,16,0.00,,,0.00,0.000000,,2013-03-30 07:12:00,
2013-03-30 00:22:00,49.0,5.0,-100.00,West,270,5.0,9.0,16,0.00,,,0.00,0.000000,,2013-03-30 07:22:00,
2013-03-30 00:32:00,49.0,5.0,-100.00,West,270,5.0,9.0,16,0.00,,,0.00,0.000000,,2013-03-30 07:32:00,
2013-03-30 01:02:00,50.0,7.0,-100.00,West,267,5.0,9.0,17,0.00,,,0.00,0.000000,,2013-03-30 08:02:00,
2013-03-30 01:12:00,50.0,7.0,-100.00,West,267,5.0,9.0,17,0.00,,,0.00,0.000000,,2013-03-30 08:12:00,
2013-03-30 01:21:00,50.0,7.0,-100.00,West,267,5.0,9.0,17,0.00,,,0.00,0.000000,,2013-03-30 08:21:00,
2013-03-30 01:31:00,50.0,7.0,-100.00,West,267,5.0,9.0,17,0.00,,,0.00,0.000000,,2013-03-30 08:31:00,
2013-03-30 02:02:00,50.0,8.0,-100.00,WNW,282,5.0,7.0,18,0.00,,,0.00,0.000000,,2013-03-30 09:02:00,
2013-03-30 02:12:00,50.0,8.0,-100.00,WNW,282,5.0,7.0,18,0.00,,,0.00,0.000000,,2013-03-30 09:12:00,
2013-03-30 02:22:00,50.0,8.0,-100.00,WNW,282,5.0,7.0,18,0.00,,,0.00,0.000000,,2013-03-30 09:22:00,
2013-03-30 02:33:00,50.0,8.0,-100.00,WNW,282,5.0,7.0,18,0.00,,,0.00,0.000000,,2013-03-30 09:33:00,
2013-03-30 03:02:00,49.0,10.0,-100.00,WSW,251,5.0,8.0,20,0.00,,,0.00,0.000000,,2013-03-30 10:02:00,
2013-03-30 03:12:00,49.0,10.0,-100.00,WSW,251,5.0,8.0,20,0.00,,,0.00,0.000000,,2013-03-30 10:12:00,
2013-03-30 03:23:00,49.0,10.0,-100.00,WSW,251,5.0,8.0,20,0.00,,,0.00,0.000000,,2013-03-30 10:23:00,
2013-03-30 03:32:00,49.0,10.0,-100.00,WSW,251,5.0,8.0,20,0.00,,,0.00,0.000000,,2013-03-30 10:32:00,
2013-03-30 04:03:00,51.0,9.0,-100.00,WNW,289,4.0,7.0,18,0.00,,,0.00,0.000000,,2013-03-30 11:03:00,
2013-03-30 04:12:00,51.0,9.0,-100.00,WNW,289,4.0,7.0,18,0.00,,,0.00,0.000000,,2013-03-30 11:12:00,
2013-03-30 04:22:00,51.0,9.0,-100.00,WNW,289,4.0,7.0,18,0.00,,,0.00,0.000000,,2013-03-30 11:22:00,
2013-03-30 04:32:00,51.0,9.0,-100.00,WNW,289,4.0,7.0,18,0.00,,,0.00,0.000000,,2013-03-30 11:32:00,
2013-03-30 05:02:00,49.0,10.0,-100.00,West,260,4.0,6.0,20,0.00,,,0.00,0.000000,,2013-03-30 12:02:00,
2013-03-30 05:12:00,49.0,10.0,-100.00,West,260,4.0,6.0,20,0.00,,,0.00,0.000000,,2013-03-30 12:12:00,
2013-03-30 05:22:00,49.0,10.0,-100.00,West,260,4.0,6.0,20,0.00,,,0.00,0.000000,,2013-03-30 12:22:00,
2013-03-30 05:32:00,49.0,10.0,-100.00,West,260,4.0,6.0,20,0.00,,,0.00,0.000000,,2013-03-30 12:32:00,
2013-03-30 06:02:00,49.0,7.0,-100.00,WNW,283,3.0,4.0,18,0.00,,,0.00,0.000000,,2013-03-30 13:02:00,
2013-03-30 06:12:00,49.0,7.0,-100.00,WNW,283,3.0,4.0,18,0.00,,,0.00,0.000000,,2013-03-30 13:12:00,
2013-03-30 06:22:00,49.0,7.0,-100.00,WNW,283,3.0,4.0,18,0.00,,,0.00,0.000000,,2013-03-30 13:22:00,
2013-03-30 06:32:00,49.0,7.0,-100.00,WNW,283,3.0,4.0,18,0.00,,,0.00,0.000000,,2013-03-30 13:32:00,
2013-03-30 07:02:00,48.0,9.0,-100.00,West,281,2.0,4.0,20,0.00,,,0.00,9.000000,,2013-03-30 14:02:00,
2013-03-30 07:11:00,48.0,9.0,-100.00,West,281,2.0,4.0,20,0.00,,,0.00,9.000000,,2013-03-30 14:11:00,
2013-03-30 07:22:00,48.0,9.0,-100.00,West,281,2.0,4.0,20,0.00,,,0.00,9.000000,,2013-03-30 14:22:00,
2013-03-30 07:32:00,48.0,9.0,-100.00,West,281,2.0,4.0,20,0.00,,,0.00,9.000000,,2013-03-30 14:32:00,
2013-03-30 08:02:00,52.0,12.0,-100.00,WNW,298,0.0,3.0,20,0.00,,,0.00,115.000000,,2013-03-30 15:02:00,
2013-03-30 08:12:00,52.0,12.0,-100.00,WNW,298,0.0,3.0,20,0.00,,,0.00,115.000000,,2013-03-30 15:12:00,
2013-03-30 08:22:00,52.0,12.0,-100.00,WNW,298,0.0,3.0,20,0.00,,,0.00,115.000000,,2013-03-30 15:22:00,
2013-03-30 08:33:00,52.0,12.0,-100.00,WNW,298,0.0,3.0,20,0.00,,,0.00,115.000000,,2013-03-30 15:33:00,
2013-03-30 09:03:00,58.0,19.0,-100.00,SSW,197,2.0,4.0,22,0.00,,,0.00,318.000000,,2013-03-30 16:03:00,
2013-03-30 09:13:00,58.0,19.0,-100.00,SSW,197,2.0,4.0,22,0.00,,,0.00,318.000000,,2013-03-30 16:13:00,
2013-03-30 09:23:00,58.0,19.0,-100.00,SSW,197,2.0,4.0,22,0.00,,,0.00,318.000000,,2013-03-30 16:23:00,
2013-03-30 09:32:00,58.0,19.0,-100.00,SSW,197,2.0,4.0,22,0.00,,,0.00,318.000000,,2013-03-30 16:32:00,
2013-03-30 10:02:00,58.0,13.0,-100.00,SE,145,4.0,6.0,17,0.00,,,0.00,474.000000,,2013-03-30 17:02:00,
2013-03-30 10:13:00,58.0,13.0,-100.00,SE,145,4.0,6.0,17,0.00,,,0.00,474.000000,,2013-03-30 17:13:00,
2013-03-30 10:22:00,58.0,13.0,-100.00,SE,145,4.0,6.0,17,0.00,,,0.00,474.000000,,2013-03-30 17:22:00,
2013-03-30 10:32:00,58.0,13.0,-100.00,SE,145,4.0,6.0,17,0.00,,,0.00,474.000000,,2013-03-30 17:32:00,
2013-03-30 11:02:00,62.0,18.0,-100.00,SW,226,2.0,6.0,18,0.00,,,0.00,542.000000,,2013-03-30 18:02:00,
2013-03-30 11:12:00,62.0,18.0,-100.00,SW,226,2.0,6.0,18,0.00,,,0.00,542.000000,,2013-03-30 18:12:00,
2013-03-30 11:22:00,62.0,18.0,-100.00,SW,226,2.0,6.0,18,0.00,,,0.00,542.000000,,2013-03-30 18:22:00,
2013-03-30 11:32:00,62.0,18.0,-100.00,SW,226,2.0,6.0,18,0.00,,,0.00,542.000000,,2013-03-30 18:32:00,
2013-03-30 12:02:00,65.0,20.0,-100.00,SW,218,4.0,9.0,18,0.00,,,0.00,799.000000,,2013-03-30 19:02:00,
2013-03-30 12:12:00,65.0,20.0,-100.00,SW,218,4.0,9.0,18,0.00,,,0.00,799.000000,,2013-03-30 19:12:00,
2013-03-30 12:22:00,65.0,20.0,-100.00,SW,218,4.0,9.0,18,0.00,,,0.00,799.000000,,2013-03-30 19:22:00,
2013-03-30 12:32:00,65.0,20.0,-100.00,SW,218,4.0,9.0,18,0.00,,,0.00,799.000000,,2013-03-30 19:32:00,
2013-03-30 13:02:00,66.0,17.0,-100.00,WSW,242,7.0,14.0,15,0.00,,,0.00,942.000000,,2013-03-30 20:02:00,
2013-03-30 13:12:00,66.0,17.0,-100.00,WSW,242,7.0,14.0,15,0.00,,,0.00,942.000000,,2013-03-30 20:12:00,
2013-03-30 13:22:00,66.0,17.0,-100.00,WSW,242,7.0,14.0,15,0.00,,,0.00,942.000000,,2013-03-30 20:22:00,
2013-03-30 13:32:00,66.0,17.0,-100.00,WSW,242,7.0,14.0,15,0.00,,,0.00,942.000000,,2013-03-30 20:32:00,
2013-03-30 14:02:00,63.0,18.0,-100.00,WSW,249,4.0,10.0,17,0.00,,,0.00,682.000000,,2013-03-30 21:02:00,
2013-03-30 14:12:00,63.0,18.0,-100.00,WSW,249,4.0,10.0,17,0.00,,,0.00,682.000000,,2013-03-30 21:12:00,
2013-03-30 14:22:00,63.0,18.0,-100.00,WSW,249,4.0,10.0,17,0.00,,,0.00,682.000000,,2013-03-30 21:22:00,
2013-03-30 14:32:00,63.0,18.0,-100.00,WSW,249,4.0,10.0,17,0.00,,,0.00,682.000000,,2013-03-30 21:32:00,
2013-03-30 15:02:00,62.0,24.0,-100.00,SW,233,4.0,12.0,23,0.00,,,0.00,520.000000,,2013-03-30 22:02:00,
2013-03-30 15:12:00,62.0,24.0,-100.00,SW,233,4.0,12.0,23,0.00,,,0.00,520.000000,,2013-03-30 22:12:00,
2013-03-30 15:23:00,62.0,24.0,-100.00,SW,233,4.0,12.0,23,0.00,,,0.00,520.000000,,2013-03-30 22:23:00,
2013-03-30 15:32:00,62.0,24.0,-100.00,SW,233,4.0,12.0,23,0.00,,,0.00,520.000000,,2013-03-30 22:32:00,
2013-03-30 16:02:00,57.0,27.0,-100.00,WSW,250,9.0,18.0,32,0.00,,,0.00,446.000000,,2013-03-30 23:02:00,
2013-03-30 16:12:00,57.0,27.0,-100.00,WSW,250,9.0,18.0,32,0.00,,,0.00,446.000000,,2013-03-30 23:12:00,
2013-03-30 16:22:00,57.0,27.0,-100.00,WSW,250,9.0,18.0,32,0.00,,,0.00,446.000000,,2013-03-30 23:22:00,
2013-03-30 16:32:00,57.0,27.0,-100.00,WSW,250,9.0,18.0,32,0.00,,,0.00,446.000000,,2013-03-30 23:32:00,
2013-03-30 17:02:00,60.0,24.0,-100.00,SW,221,4.0,12.0,25,0.00,,,0.00,545.000000,,2013-03-31 00:02:00,
2013-03-30 17:12:00,60.0,24.0,-100.00,SW,221,4.0,12.0,25,0.00,,,0.00,545.000000,,2013-03-31 00:12:00,
2013-03-30 17:22:00,60.0,24.0,-100.00,SW,221,4.0,12.0,25,0.00,,,0.00,545.000000,,2013-03-31 00:22:00,
2013-03-30 17:32:00,60.0,24.0,-100.00,SW,221,4.0,12.0,25,0.00,,,0.00,545.000000,,2013-03-31 00:32:00,
2013-03-30 18:02:00,58.0,23.0,-100.00,SSW,194,3.0,10.0,26,0.00,,,0.00,411.000000,,2013-03-31 01:02:00,
2013-03-30 18:12:00,58.0,23.0,-100.00,SSW,194,3.0,10.0,26,0.00,,,0.00,411.000000,,2013-03-31 01:12:00,
2013-03-30 18:22:00,58.0,23.0,-100.00,SSW,194,3.0,10.0,26,0.00,,,0.00,411.000000,,2013-03-31 01:22:00,
2013-03-30 18:32:00,58.0,23.0,-100.00,SSW,194,3.0,10.0,26,0.00,,,0.00,411.000000,,2013-03-31 01:32:00,
2013-03-30 19:02:00,52.0,23.0,-100.00,SW,218,2.0,7.0,32,0.00,,,0.00,96.000000,,2013-03-31 02:02:00,
2013-03-30 19:12:00,52.0,23.0,-100.00,SW,218,2.0,7.0,32,0.00,,,0.00,96.000000,,2013-03-31 02:12:00,
2013-03-30 19:22:00,52.0,23.0,-100.00,SW,218,2.0,7.0,32,0.00,,,0.00,96.000000,,2013-03-31 02:22:00,
2013-03-30 19:32:00,52.0,23.0,-100.00,SW,218,2.0,7.0,32,0.00,,,0.00,96.000000,,2013-03-31 02:32:00,
2013-03-30 20:02:00,50.0,22.0,-100.00,NW,307,2.0,4.0,33,0.00,,,0.00,1.000000,,2013-03-31 03:02:00,
2013-03-30 20:12:00,50.0,22.0,-100.00,NW,307,2.0,4.0,33,0.00,,,0.00,1.000000,,2013-03-31 03:12:00,
2013-03-30 20:22:00,50.0,22.0,-100.00,NW,307,2.0,4.0,33,0.00,,,0.00,1.000000,,2013-03-31 03:22:00,
2013-03-30 20:32:00,50.0,22.0,-100.00,NW,307,2.0,4.0,33,0.00,,,0.00,1.000000,,2013-03-31 03:32:00,
2013-03-30 21:02:00,49.0,-99.9,-100.00,NNW,334,3.0,11.0,32,0.00,,,0.00,0.000000,,2013-03-31 04:02:00,
2013-03-30 21:13:00,49.0,20.0,-100.00,NNW,334,3.0,11.0,32,0.00,,,0.00,0.000000,,2013-03-31 04:13:00,
2013-03-30 21:22:00,49.0,20.0,-100.00,NNW,334,3.0,11.0,32,0.00,,,0.00,0.000000,,2013-03-31 04:22:00,
2013-03-30 21:32:00,49.0,20.0,-100.00,NNW,334,3.0,11.0,32,0.00,,,0.00,0.000000,,2013-03-31 04:32:00,
2013-03-30 22:02:00,48.0,20.0,-100.00,NW,312,4.0,9.0,32,0.00,,,0.00,0.000000,,2013-03-31 05:02:00,
2013-03-30 22:12:00,48.0,20.0,-100.00,NW,312,4.0,9.0,32,0.00,,,0.00,0.000000,,2013-03-31 05:12:00,
2013-03-30 22:22:00,48.0,20.0,-100.00,NW,312,4.0,9.0,32,0.00,,,0.00,0.000000,,2013-03-31 05:22:00,
2013-03-30 22:32:00,48.0,20.0,-100.00,NW,312,4.0,9.0,32,0.00,,,0.00,0.000000,,2013-03-31 05:32:00,
2013-03-30 23:01:00,47.0,19.0,-100.00,NW,307,4.0,8.0,32,0.00,,,0.00,0.000000,,2013-03-31 06:01:00,
2013-03-30 23:12:00,47.0,19.0,-100.00,NW,307,4.0,8.0,32,0.00,,,0.00,0.000000,,2013-03-31 06:12:00,
2013-03-30 23:22:00,47.0,19.0,-100.00,NW,307,4.0,8.0,32,0.00,,,0.00,0.000000,,2013-03-31 06:22:00,
2013-03-30 23:32:00,47.0,19.0,-100.00,NW,307,4.0,8.0,32,0.00,,,0.00,0.000000,,2013-03-31 06:32:00,